Time;durP1;ratioP1;P1;durP2;ratioP2;P2;SDS_P1;SDS_P2;PMS_P1;PMS_P2;Temp;Humidity;BMP_temperature;BMP_pressure;BME280_temperature;BME280_humidity;BME280_pressure;Samples;Min_cycle;Max_cycle;Signal;HPM_P1;HPM_P2
2022/01/20 00:00:44;;;;;;;27.32;15.83;;;;;;;-2.73;72.04;100445.97;1679629;84;21024;-69
2022/01/20 00:03:01;;;;;;;30.20;16.57;;;;;;;-2.75;72.06;100433.53;1695521;83;21387;-70
2022/01/20 00:06:09;;;;;;;30.75;16.35;;;;;;;-2.74;72.10;100430.05;1681929;83;20977;-69
2022/01/20 00:27:04;;;;;;;25.55;15.72;;;;;;;-2.63;72.23;100397.88;1687046;84;20968;-67
2022/01/20 00:29:34;;;;;;;27.35;15.18;;;;;;;-2.61;72.21;100402.59;1671974;85;20990;-69
2022/01/20 00:32:11;;;;;;;25.30;15.05;;;;;;;-2.60;72.26;100396.53;1685889;84;21027;-69
2022/01/20 00:35:05;;;;;;;26.33;15.83;;;;;;;-2.60;72.28;100396.53;1698904;82;21821;-68
2022/01/20 00:37:17;;;;;;;24.45;14.30;;;;;;;-2.57;72.31;100385.70;1692794;83;21051;-70
2022/01/20 00:39:44;;;;;;;23.95;14.73;;;;;;;-2.54;72.34;100387.75;1704677;83;20964;-68
2022/01/20 00:42:11;;;;;;;24.02;15.68;;;;;;;-2.52;72.33;100387.26;1681531;83;21728;-71
2022/01/20 00:44:39;;;;;;;24.60;15.10;;;;;;;-2.50;72.31;100384.22;1693275;83;20952;-69
2022/01/20 00:47:08;;;;;;;30.12;15.75;;;;;;;-2.48;72.30;100382.87;1697504;82;21001;-72
2022/01/20 00:49:36;;;;;;;28.60;16.02;;;;;;;-2.44;72.28;100385.33;1676518;84;21059;-69
2022/01/20 00:52:04;;;;;;;21.10;13.65;;;;;;;-2.42;72.29;100384.84;1679845;84;20968;-68
2022/01/20 00:54:31;;;;;;;23.20;13.78;;;;;;;-2.40;72.25;100378.36;1685286;84;21020;-68
2022/01/20 00:56:58;;;;;;;27.05;15.18;;;;;;;-2.41;72.30;100366.31;1691227;84;21004;-69
2022/01/20 00:59:26;;;;;;;24.77;15.65;;;;;;;-2.41;72.32;100365.87;1667732;83;22551;-69
2022/01/20 01:01:54;;;;;;;28.07;16.12;;;;;;;-2.41;72.38;100361.99;1671418;84;20960;-70
2022/01/20 01:04:21;;;;;;;25.48;15.50;;;;;;;-2.40;72.40;100367.56;1701271;84;20976;-68
2022/01/20 01:07:09;;;;;;;26.27;16.05;;;;;;;-2.37;72.43;100375.23;1695582;84;21005;-68
2022/01/20 01:09:20;;;;;;;25.20;15.18;;;;;;;-2.36;72.42;100369.17;1696298;84;21056;-69
2022/01/20 01:11:47;;;;;;;25.35;14.20;;;;;;;-2.34;72.43;100364.80;1705264;83;21829;-69
2022/01/20 01:14:16;;;;;;;23.35;13.65;;;;;;;-2.32;72.43;100375.09;1705022;84;21019;-68
2022/01/20 01:24:41;;;;;;;25.55;16.17;;;;;;;-2.27;72.42;100359.02;1707547;83;21702;-70
2022/01/20 01:27:09;;;;;;;23.83;15.75;;;;;;;-2.23;72.45;100366.24;1701742;84;21015;-69
2022/01/20 01:32:06;;;;;;;22.02;14.50;;;;;;;-2.19;72.32;100359.66;1702308;83;20975;-69
2022/01/20 01:34:34;;;;;;;20.85;14.15;;;;;;;-2.16;72.23;100356.14;1703727;84;21428;-68
2022/01/20 01:39:26;;;;;;;24.30;14.50;;;;;;;-2.09;72.00;100335.68;1689222;84;21063;-70
2022/01/20 01:41:53;;;;;;;21.80;14.35;;;;;;;-2.07;71.85;100330.00;1702995;83;21126;-69
2022/01/20 01:44:26;;;;;;;24.02;15.20;;;;;;;-2.05;71.67;100323.04;1700605;82;21051;-69
2022/01/20 01:46:52;;;;;;;29.30;17.90;;;;;;;-2.03;71.50;100309.19;1705146;83;20984;-68
2022/01/20 01:49:20;;;;;;;41.75;25.40;;;;;;;-2.00;71.38;100313.42;1686779;83;21730;-69
2022/01/20 01:51:47;;;;;;;34.43;21.35;;;;;;;-1.99;71.21;100312.52;1669338;85;21079;-68
2022/01/20 01:54:15;;;;;;;23.62;15.03;;;;;;;-1.97;71.08;100308.14;1673386;84;21020;-69
2022/01/20 01:56:45;;;;;;;19.95;13.85;;;;;;;-1.95;70.95;100302.47;1663574;85;21032;-68
2022/01/20 01:59:13;;;;;;;20.20;13.00;;;;;;;-1.95;70.79;100301.17;1689704;84;20956;-69
2022/01/20 02:01:41;;;;;;;16.87;11.70;;;;;;;-1.94;70.70;100304.16;1692666;83;22543;-69
2022/01/20 02:04:20;;;;;;;19.12;11.43;;;;;;;-1.91;70.62;100305.39;1700757;84;20985;-69
2022/01/20 02:07:28;;;;;;;18.27;11.03;;;;;;;-1.91;70.42;100299.37;1725758;83;21546;-68
2022/01/20 02:18:13;;;;;;;19.20;12.90;;;;;;;-1.88;69.95;100286.32;1715205;83;20956;-68
2022/01/20 02:20:30;;;;;;;21.35;13.25;;;;;;;-1.88;69.89;100288.91;1701258;83;21012;-69
2022/01/20 02:22:58;;;;;;;18.50;12.00;;;;;;;-1.89;69.79;100285.48;1689083;85;21440;-69
2022/01/20 02:25:35;;;;;;;17.95;11.93;;;;;;;-1.88;69.74;100279.84;1689005;85;20968;-69
2022/01/20 02:28:07;;;;;;;17.73;12.37;;;;;;;-1.90;69.68;100275.17;1697653;83;22462;-69
2022/01/20 02:30:34;;;;;;;18.95;12.07;;;;;;;-1.89;69.69;100264.77;1690372;84;21439;-69
2022/01/20 02:33:17;;;;;;;18.48;11.55;;;;;;;-1.89;69.64;100263.92;1674436;85;20963;-68
2022/01/20 02:35:52;;;;;;;16.37;11.12;;;;;;;-1.91;69.63;100265.27;1700936;83;20973;-68
2022/01/20 02:46:24;;;;;;;11.70;8.40;;;;;;;-1.93;69.28;100251.53;1700088;84;21008;-69
2022/01/20 02:48:50;;;;;;;15.03;9.08;;;;;;;-1.90;69.16;100249.28;1699516;84;21117;-69
2022/01/20 02:51:17;;;;;;;16.12;9.95;;;;;;;-1.91;69.12;100240.67;1702665;84;21056;-68
2022/01/20 02:53:43;;;;;;;19.07;10.98;;;;;;;-1.90;69.13;100238.94;1679161;84;21821;-69
2022/01/20 02:56:10;;;;;;;20.00;10.95;;;;;;;-1.92;69.16;100235.10;1670172;84;20999;-69
2022/01/20 02:58:37;;;;;;;15.30;9.75;;;;;;;-1.92;69.19;100236.84;1663437;85;21205;-69
2022/01/20 03:01:05;;;;;;;14.50;10.23;;;;;;;-1.94;69.17;100231.69;1690904;83;21051;-69
2022/01/20 03:03:32;;;;;;;15.90;10.45;;;;;;;-1.94;69.26;100223.92;1692004;84;20973;-69
2022/01/20 03:05:58;;;;;;;15.18;9.88;;;;;;;-1.95;69.30;100218.35;1698460;84;21789;-69
2022/01/20 03:08:25;;;;;;;14.05;9.78;;;;;;;-1.96;69.36;100219.70;1691839;84;21119;-69
2022/01/20 03:10:52;;;;;;;15.10;10.10;;;;;;;-1.96;69.37;100223.58;1673889;83;21029;-70
2022/01/20 03:13:19;;;;;;;15.78;9.50;;;;;;;-1.97;69.30;100208.50;1679675;84;21400;-69
2022/01/20 03:15:47;;;;;;;13.22;8.60;;;;;;;-1.98;69.30;100202.92;1691975;84;21008;-69
2022/01/20 03:18:14;;;;;;;12.70;8.48;;;;;;;-1.97;69.24;100198.14;1699933;83;22507;-69
2022/01/20 03:20:41;;;;;;;12.68;8.30;;;;;;;-1.96;69.22;100198.54;1689777;84;20977;-69
2022/01/20 03:23:08;;;;;;;13.98;8.83;;;;;;;-1.95;69.25;100195.05;1699709;84;21071;-70
2022/01/20 03:25:35;;;;;;;12.00;8.55;;;;;;;-1.97;69.10;100194.71;1693023;84;21095;-69
2022/01/20 03:28:02;;;;;;;13.53;8.83;;;;;;;-1.98;69.13;100191.28;1677481;83;20988;-70
2022/01/20 03:30:29;;;;;;;12.25;8.63;;;;;;;-1.99;69.16;100194.77;1691481;84;21858;-69
2022/01/20 03:32:56;;;;;;;14.33;8.95;;;;;;;-1.99;69.13;100196.51;1691820;84;21019;-69
2022/01/20 03:35:24;;;;;;;12.50;8.15;;;;;;;-1.98;69.12;100201.62;1691911;84;20976;-69
2022/01/20 03:37:59;;;;;;;15.10;9.65;;;;;;;-1.97;69.11;100206.36;1652868;84;21059;-69
2022/01/20 03:40:26;;;;;;;16.05;9.30;;;;;;;-1.97;69.11;100202.48;1680774;83;21047;-68
2022/01/20 03:42:52;;;;;;;14.25;9.23;;;;;;;-1.98;69.09;100195.16;1700994;83;21790;-70
2022/01/20 03:45:25;;;;;;;14.15;9.48;;;;;;;-1.99;69.09;100183.12;1663466;84;21404;-69
2022/01/20 03:47:51;;;;;;;14.60;9.10;;;;;;;-2.00;69.15;100190.94;1683121;84;21011;-69
2022/01/20 03:53:02;;;;;;;15.00;9.48;;;;;;;-2.04;69.03;100183.69;1648274;84;20943;-69
2022/01/20 03:55:28;;;;;;;13.78;8.70;;;;;;;-2.05;68.94;100191.91;1682561;84;21827;-69
2022/01/20 03:57:56;;;;;;;14.53;9.83;;;;;;;-2.04;68.91;100184.98;1688318;83;21507;-69
2022/01/20 04:00:25;;;;;;;14.83;10.90;;;;;;;-2.03;68.88;100182.80;1691404;83;21019;-68
2022/01/20 04:02:53;;;;;;;15.83;10.05;;;;;;;-2.00;68.86;100192.23;1667758;84;21509;-69
2022/01/20 04:05:48;;;;;;;20.50;10.25;;;;;;;-2.01;68.94;100195.27;1674683;85;21561;-69
2022/01/20 04:08:12;;;;;;;16.82;10.18;;;;;;;-2.02;69.01;100197.01;1673542;84;21839;-69
2022/01/20 04:10:38;;;;;;;16.82;11.90;;;;;;;-2.03;69.11;100191.44;1702496;83;21015;-68
2022/01/20 04:13:04;;;;;;;17.00;10.50;;;;;;;-2.06;69.13;100188.92;1702477;83;21087;-70
2022/01/20 04:15:38;;;;;;;18.02;10.75;;;;;;;-2.06;69.12;100191.95;1702965;83;20964;-69
2022/01/20 04:18:02;;;;;;;13.28;9.20;;;;;;;-2.08;69.03;100189.42;1701462;83;21446;-68
2022/01/20 04:20:29;;;;;;;16.50;9.73;;;;;;;-2.11;68.93;100189.53;1682659;85;24026;-69
2022/01/20 04:22:55;;;;;;;17.15;10.43;;;;;;;-2.11;68.94;100177.88;1702527;84;21055;-68
2022/01/20 04:25:23;;;;;;;16.87;11.12;;;;;;;-2.11;68.93;100179.17;1683267;85;21421;-69
2022/01/20 04:27:50;;;;;;;16.65;10.65;;;;;;;-2.11;68.96;100174.00;1682221;85;21048;-69
2022/01/20 04:30:17;;;;;;;18.77;11.65;;;;;;;-2.11;68.92;100176.59;1682802;85;21028;-69
2022/01/20 04:32:44;;;;;;;17.65;11.40;;;;;;;-2.12;68.89;100178.78;1683353;85;21848;-69
2022/01/20 04:35:11;;;;;;;15.72;10.80;;;;;;;-2.12;68.92;100176.19;1683140;85;21008;-68
2022/01/20 04:37:37;;;;;;;13.98;9.63;;;;;;;-2.12;69.02;100167.14;1682028;84;21448;-68
2022/01/20 04:40:06;;;;;;;12.20;8.95;;;;;;;-2.14;68.98;100166.76;1682847;85;21003;-69
2022/01/20 04:42:36;;;;;;;13.22;9.23;;;;;;;-2.15;68.88;100162.48;1700193;83;21362;-69
2022/01/20 04:45:08;;;;;;;13.48;8.65;;;;;;;-2.18;68.85;100159.55;1694924;83;21873;-70
2022/01/20 04:58:17;;;;;;;14.65;9.55;;;;;;;-2.24;68.74;100158.87;1696788;83;22582;-68
2022/01/20 05:00:44;;;;;;;15.50;9.48;;;;;;;-2.28;68.58;100156.00;1694111;84;21392;-69
2022/01/20 05:03:24;;;;;;;17.35;10.08;;;;;;;-2.32;68.54;100152.22;1704411;82;21180;-69
2022/01/20 05:05:51;;;;;;;15.18;10.23;;;;;;;-2.35;68.42;100147.12;1699852;82;21415;-69
2022/01/20 05:08:23;;;;;;;15.80;10.70;;;;;;;-2.35;68.38;100143.23;1676046;85;21012;-69
2022/01/20 05:10:48;;;;;;;30.75;19.17;;;;;;;-2.34;68.45;100132.45;1697513;83;22481;-70
2022/01/20 05:13:24;;;;;;;18.85;12.85;;;;;;;-2.35;68.53;100132.89;1695161;82;21099;-71
2022/01/20 05:15:50;;;;;;;18.95;12.05;;;;;;;-2.39;68.50;100113.20;1666323;85;21032;-69
2022/01/20 05:18:17;;;;;;;18.30;12.10;;;;;;;-2.40;68.50;100126.19;1673471;85;21133;-69
2022/01/20 05:20:44;;;;;;;18.05;11.18;;;;;;;-2.41;68.60;100130.96;1697990;83;20994;-70
2022/01/20 05:23:10;;;;;;;20.85;12.85;;;;;;;-2.43;68.54;100113.33;1690086;84;21784;-71
2022/01/20 05:25:37;;;;;;;20.40;12.98;;;;;;;-2.44;68.60;100103.43;1689419;83;21094;-71
2022/01/20 05:28:05;;;;;;;17.42;12.78;;;;;;;-2.45;68.66;100093.98;1678626;84;21445;-70
2022/01/20 05:30:32;;;;;;;24.32;14.35;;;;;;;-2.45;68.68;100106.06;1686440;84;20968;-69
2022/01/20 05:33:14;;;;;;;22.15;15.65;;;;;;;-2.45;68.81;100109.95;1626034;84;21032;-69
2022/01/20 05:35:41;;;;;;;27.62;18.15;;;;;;;-2.47;69.02;100090.60;1669978;84;21764;-69
2022/01/20 05:38:08;;;;;;;26.48;16.55;;;;;;;-2.46;69.23;100094.03;1670302;84;21008;-70
2022/01/20 05:40:35;;;;;;;29.27;18.15;;;;;;;-2.46;69.37;100099.20;1683642;84;21102;-70
2022/01/20 05:43:03;;;;;;;26.65;17.87;;;;;;;-2.46;69.52;100096.17;1682722;84;20980;-69
2022/01/20 05:45:30;;;;;;;25.75;15.75;;;;;;;-2.45;69.62;100093.14;1681989;83;20976;-71
2022/01/20 05:48:10;;;;;;;27.07;17.37;;;;;;;-2.44;69.70;100091.79;1689005;84;21801;-68
2022/01/20 05:50:47;;;;;;;26.05;17.35;;;;;;;-2.46;69.75;100084.53;1672956;84;21004;-69
2022/01/20 05:53:14;;;;;;;31.75;17.98;;;;;;;-2.45;69.83;100093.14;1662209;84;21047;-70
2022/01/20 05:55:41;;;;;;;27.77;18.52;;;;;;;-2.46;69.96;100097.46;1695297;84;21004;-69
2022/01/20 05:58:08;;;;;;;25.80;17.70;;;;;;;-2.46;70.03;100097.46;1662777;84;21031;-69
2022/01/20 06:00:36;;;;;;;34.38;19.25;;;;;;;-2.45;70.07;100097.02;1689274;85;21882;-69
2022/01/20 06:05:47;;;;;;;25.70;17.15;;;;;;;-2.44;70.29;100094.83;1674830;84;21112;-69
2022/01/20 06:08:16;;;;;;;31.30;19.10;;;;;;;-2.43;70.33;100090.89;1673974;84;21467;-69
2022/01/20 06:10:43;;;;;;;31.33;18.70;;;;;;;-2.42;70.39;100078.36;1717170;83;20963;-69
2022/01/20 06:13:12;;;;;;;30.97;18.62;;;;;;;-2.41;70.39;100086.55;1700387;83;21918;-69
2022/01/20 06:15:40;;;;;;;35.83;21.10;;;;;;;-2.39;70.41;100085.20;1684332;83;20980;-69
2022/01/20 06:18:08;;;;;;;29.75;18.57;;;;;;;-2.40;70.43;100085.65;1665721;85;21009;-69
2022/01/20 06:20:36;;;;;;;31.25;19.48;;;;;;;-2.39;70.41;100081.32;1687237;84;21549;-69
2022/01/20 06:23:06;;;;;;;29.57;19.40;;;;;;;-2.39;70.42;100080.03;1689133;85;20967;-69
2022/01/20 06:25:34;;;;;;;27.95;18.57;;;;;;;-2.41;70.41;100072.77;1676917;85;21752;-69
2022/01/20 06:28:01;;;;;;;30.65;18.12;;;;;;;-2.42;70.53;100066.72;1702674;83;21000;-69
2022/01/20 06:30:28;;;;;;;29.63;19.40;;;;;;;-2.43;70.45;100073.23;1702990;84;21434;-69
2022/01/20 06:32:55;;;;;;;29.80;18.95;;;;;;;-2.45;70.49;100072.00;1702439;83;21565;-70
2022/01/20 06:35:26;;;;;;;27.17;17.70;;;;;;;-2.43;70.56;100080.55;1685328;83;20930;-69
2022/01/20 06:37:53;;;;;;;28.60;19.25;;;;;;;-2.42;70.61;100070.60;1688208;83;21774;-68
2022/01/20 06:40:19;;;;;;;33.42;20.95;;;;;;;-2.40;70.61;100061.53;1685242;84;21055;-70
2022/01/20 06:42:46;;;;;;;35.25;21.93;;;;;;;-2.39;70.64;100060.19;1700551;84;21048;-69
2022/01/20 06:45:14;;;;;;;34.33;21.82;;;;;;;-2.36;70.67;100056.20;1696851;84;21067;-68
2022/01/20 06:47:41;;;;;;;33.18;20.68;;;;;;;-2.32;70.68;100056.52;1695773;84;21097;-69
2022/01/20 06:50:10;;;;;;;35.20;22.40;;;;;;;-2.29;70.65;100058.15;1702741;84;21980;-69
2022/01/20 06:52:37;;;;;;;36.25;23.45;;;;;;;-2.28;70.63;100034.42;1678315;84;21079;-68
2022/01/20 06:55:07;;;;;;;30.17;19.07;;;;;;;-2.27;70.59;100035.66;1702994;83;21498;-69
2022/01/20 06:57:34;;;;;;;28.40;18.50;;;;;;;-2.25;70.58;100043.36;1707786;83;20975;-69
2022/01/20 07:00:08;;;;;;;31.00;18.65;;;;;;;-2.25;70.61;100032.56;1665655;85;21382;-68
2022/01/20 07:02:35;;;;;;;;;;;;;;;-2.22;70.59;100034.20;1667716;85;21853;-71
2022/01/20 07:05:02;;;;;;;27.35;15.83;;;;;;;-2.21;70.57;100036.77;1677085;85;20156;-72
2022/01/20 07:07:30;;;;;;;25.97;17.73;;;;;;;-2.22;70.51;100034.20;1678887;83;21021;-72
2022/01/20 07:10:07;;;;;;;32.55;20.30;;;;;;;-2.20;70.54;100028.10;1693820;84;21481;-71
2022/01/20 07:12:44;;;;;;;27.55;17.85;;;;;;;-2.16;70.57;100032.72;1690993;84;20969;-76
2022/01/20 07:15:13;;;;;;;26.33;16.73;;;;;;;-2.14;70.50;100034.35;1697814;83;21844;-72
2022/01/20 07:17:40;;;;;;;27.22;16.62;;;;;;;-2.13;70.37;100029.57;1690848;83;20973;-73
2022/01/20 07:20:08;;;;;;;27.42;17.10;;;;;;;-2.15;70.21;100025.34;1685901;84;21011;-73
2022/01/20 07:22:37;;;;;;;25.43;16.12;;;;;;;-2.14;70.22;100029.17;1690613;84;21020;-72
2022/01/20 07:25:05;;;;;;;27.10;16.95;;;;;;;-2.12;70.19;100030.45;1690441;84;21036;-71
2022/01/20 07:27:33;;;;;;;25.62;16.05;;;;;;;-2.07;70.22;100033.71;1676109;84;21806;-70
2022/01/20 07:30:00;;;;;;;24.65;15.98;;;;;;;-2.04;70.06;100032.30;1677127;85;21008;-69
2022/01/20 07:32:27;;;;;;;28.05;15.95;;;;;;;-2.00;69.89;100030.48;1690037;84;21024;-73
2022/01/20 07:34:53;;;;;;;22.42;14.98;;;;;;;-1.98;69.74;100033.86;1683675;84;20992;-70
2022/01/20 07:37:20;;;;;;;27.75;15.63;;;;;;;-1.96;69.72;100023.84;1676875;83;21088;-73
2022/01/20 07:39:47;;;;;;;29.02;17.37;;;;;;;-1.92;69.54;100020.72;1700054;83;21781;-71
2022/01/20 07:42:13;;;;;;;26.68;17.20;;;;;;;-1.89;69.51;100019.31;1686083;84;21004;-73
2022/01/20 07:44:51;;;;;;;28.67;16.57;;;;;;;-1.84;69.42;100016.10;1587261;88;21068;-72
2022/01/20 07:47:26;;;;;;;27.02;17.82;;;;;;;-1.78;69.36;100017.20;1676030;84;21054;-73
2022/01/20 07:49:54;;;;;;;26.40;16.20;;;;;;;-1.72;69.31;100017.45;1694186;84;21098;-71
2022/01/20 07:52:22;;;;;;;26.55;17.02;;;;;;;-1.68;69.04;100008.20;1687582;84;22443;-72
2022/01/20 07:54:49;;;;;;;26.30;15.15;;;;;;;-1.65;68.99;100003.36;1682839;83;21063;-71
2022/01/20 07:57:16;;;;;;;22.42;14.87;;;;;;;-1.64;68.73;99996.86;1645416;83;21110;-71
2022/01/20 07:59:42;;;;;;;26.07;16.25;;;;;;;-1.61;68.58;99990.72;1690841;83;21412;-71
2022/01/20 08:02:09;;;;;;;26.00;16.37;;;;;;;-1.58;68.54;99984.97;1672996;84;21483;-71
2022/01/20 08:04:36;;;;;;;24.00;15.63;;;;;;;-1.50;68.52;99988.59;1674152;84;21846;-71
2022/01/20 08:07:05;;;;;;;23.90;14.40;;;;;;;-1.45;68.21;99997.02;1654574;86;21042;-71
2022/01/20 08:09:33;;;;;;;29.37;17.67;;;;;;;-1.40;68.09;99989.94;1649918;85;20968;-70
2022/01/20 08:12:03;;;;;;;22.90;15.05;;;;;;;-1.32;68.08;99993.55;1654707;86;21413;-71
2022/01/20 08:14:33;;;;;;;20.15;13.18;;;;;;;-1.25;67.87;99993.27;1664910;85;21024;-70
2022/01/20 08:17:00;;;;;;;23.12;13.20;;;;;;;-1.22;67.49;99998.78;1668065;85;21828;-70
2022/01/20 08:19:28;;;;;;;23.22;14.58;;;;;;;-1.21;67.46;100000.47;1669623;86;21012;-70
2022/01/20 08:21:58;;;;;;;24.35;15.18;;;;;;;-1.21;67.47;100000.02;1684764;84;20994;-70
2022/01/20 08:24:25;;;;;;;22.42;14.70;;;;;;;-1.19;67.30;100002.55;1669490;84;21524;-71
2022/01/20 08:26:52;;;;;;;21.93;14.30;;;;;;;-1.17;67.32;100008.52;1666173;85;21396;-72
2022/01/20 08:29:19;;;;;;;22.98;15.23;;;;;;;-1.15;67.11;100008.03;1665182;84;24119;-69
2022/01/20 08:31:47;;;;;;;23.60;14.18;;;;;;;-1.10;67.23;100013.87;1669288;86;21101;-70
2022/01/20 08:34:16;;;;;;;23.70;14.25;;;;;;;-1.05;67.16;99997.71;1677398;84;21618;-69
2022/01/20 08:36:46;;;;;;;26.50;14.25;;;;;;;-1.01;66.90;99999.72;1690890;84;21037;-71
2022/01/20 08:39:48;;;;;;;22.35;13.32;;;;;;;-0.98;67.00;99991.82;1673805;84;21012;-70
2022/01/20 08:41:49;;;;;;;23.27;13.90;;;;;;;-0.96;66.66;99984.85;1662603;84;21857;-73
2022/01/20 08:44:16;;;;;;;23.73;13.75;;;;;;;-0.96;66.48;99986.99;1667778;85;21090;-70
2022/01/20 08:46:43;;;;;;;24.20;14.87;;;;;;;-0.96;66.46;99984.41;1656555;86;20960;-70
2022/01/20 08:49:09;;;;;;;21.30;13.22;;;;;;;-0.93;66.59;99996.39;1655651;85;21008;-70
2022/01/20 08:51:39;;;;;;;25.40;15.55;;;;;;;-0.92;66.38;99985.11;1654168;85;21015;-70
2022/01/20 08:54:11;;;;;;;22.07;13.28;;;;;;;-0.90;66.46;99971.64;1654446;86;21805;-71
2022/01/20 08:56:42;;;;;;;26.90;15.00;;;;;;;-0.83;66.38;99967.06;1654494;85;21513;-71
2022/01/20 08:59:09;;;;;;;21.80;13.93;;;;;;;-0.80;66.43;99955.27;1665920;84;21009;-73
2022/01/20 09:01:37;;;;;;;25.15;15.75;;;;;;;-0.77;66.17;99953.84;1662326;86;21046;-71
2022/01/20 09:04:05;;;;;;;23.27;15.68;;;;;;;-0.72;66.35;99950.17;1672652;84;21013;-71
2022/01/20 09:06:33;;;;;;;23.22;14.70;;;;;;;-0.63;66.51;99951.10;1674550;84;22506;-73
2022/01/20 09:09:10;;;;;;;25.00;15.32;;;;;;;-0.54;66.20;99954.23;1679897;84;20996;-73
2022/01/20 09:11:50;;;;;;;25.97;15.55;;;;;;;-0.48;66.10;99935.80;1682515;84;21051;-70
2022/01/20 09:16:53;;;;;;;25.45;14.03;;;;;;;-0.32;65.88;99916.11;1692134;84;21000;-70
2022/01/20 09:19:22;;;;;;;26.12;16.02;;;;;;;-0.32;65.45;99910.46;1693194;84;21861;-70
2022/01/20 09:21:57;;;;;;;26.45;14.98;;;;;;;-0.36;65.47;99901.13;1659525;86;39547;-71
2022/01/20 09:24:26;;;;;;;26.25;15.53;;;;;;;-0.41;65.45;99900.92;1670723;83;21513;-70
2022/01/20 09:26:52;;;;;;;26.17;15.32;;;;;;;-0.49;65.42;99896.50;1679727;83;20997;-69
2022/01/20 09:29:20;;;;;;;24.45;14.68;;;;;;;-0.59;65.38;99890.86;1695623;82;21095;-70
2022/01/20 09:31:50;;;;;;;25.02;15.35;;;;;;;-0.67;65.66;99889.91;1685595;83;21817;-71
2022/01/20 09:34:16;;;;;;;24.12;14.40;;;;;;;-0.67;65.96;99889.06;1655266;85;20972;-69
2022/01/20 09:36:45;;;;;;;20.88;13.53;;;;;;;-0.66;65.81;99885.10;1687376;84;21023;-75
2022/01/20 09:39:12;;;;;;;22.48;13.80;;;;;;;-0.67;65.82;99873.05;1692657;84;20980;-73
2022/01/20 09:41:50;;;;;;;24.05;13.70;;;;;;;-0.66;66.04;99868.24;1693050;83;21072;-73
2022/01/20 09:44:18;;;;;;;22.25;14.80;;;;;;;-0.64;66.04;99857.80;1687836;84;22894;-72
2022/01/20 09:46:45;;;;;;;24.25;14.43;;;;;;;-0.62;66.05;99865.05;1698218;84;21446;-72
2022/01/20 09:49:14;;;;;;;24.75;15.35;;;;;;;-0.57;66.27;99857.10;1710494;83;20955;-72
2022/01/20 09:51:43;;;;;;;25.82;14.35;;;;;;;-0.55;66.19;99853.52;1698882;84;20975;-70
2022/01/20 09:54:14;;;;;;;23.38;15.45;;;;;;;-0.57;65.99;99842.83;1678044;84;21468;-70
2022/01/20 09:56:45;;;;;;;27.42;16.67;;;;;;;-0.62;65.91;99837.37;1688725;84;21888;-70
2022/01/20 09:59:14;;;;;;;25.55;14.75;;;;;;;-0.67;65.92;99828.95;1681941;84;21435;-70
2022/01/20 10:01:47;;;;;;;25.08;15.08;;;;;;;-0.71;66.08;99834.31;1681874;83;21127;-71
2022/01/20 10:04:30;;;;;;;;;;;;;;;-0.77;66.17;99829.38;1668418;85;20976;-72
2022/01/20 10:07:09;;;;;;;25.50;15.10;;;;;;;-0.78;66.44;99835.02;1679380;84;20239;-70
2022/01/20 10:09:45;;;;;;;24.00;15.03;;;;;;;-0.83;66.39;99829.20;1697026;84;21862;-69
2022/01/20 10:12:19;;;;;;;26.30;15.38;;;;;;;-0.88;66.52;99820.30;1684256;84;20996;-70
2022/01/20 10:14:54;;;;;;;21.30;12.07;;;;;;;-0.94;66.62;99816.68;1697728;84;20975;-70
2022/01/20 10:17:29;;;;;;;27.98;16.67;;;;;;;-0.98;66.73;99822.88;1692333;84;20969;-72
2022/01/20 10:20:01;;;;;;;25.70;16.07;;;;;;;-1.03;66.84;99811.88;1690483;84;21453;-71
2022/01/20 10:22:30;;;;;;;28.30;16.35;;;;;;;-1.03;67.19;99813.62;1694419;84;21841;-72
2022/01/20 10:25:12;;;;;;;28.10;17.57;;;;;;;-0.99;67.32;99802.20;1640517;84;20984;-72
2022/01/20 10:27:52;;;;;;;27.70;17.55;;;;;;;-0.94;67.36;99792.51;1694128;84;21060;-72
2022/01/20 10:30:20;;;;;;;30.95;18.30;;;;;;;-0.92;67.51;99795.42;1699543;84;21542;-73
2022/01/20 10:32:50;;;;;;;29.92;16.73;;;;;;;-0.89;67.70;99795.73;1690853;83;21076;-72
2022/01/20 10:35:21;;;;;;;28.57;17.73;;;;;;;-0.89;67.38;99791.84;1691552;83;21870;-72
2022/01/20 10:38:12;;;;;;;25.45;16.27;;;;;;;-0.90;67.36;99781.09;1696322;84;21035;-73
2022/01/20 10:40:48;;;;;;;28.40;16.97;;;;;;;-0.90;67.32;99778.05;1674235;84;21491;-72
2022/01/20 10:43:27;;;;;;;27.10;16.90;;;;;;;-0.95;67.31;99770.93;1666417;84;20969;-72
2022/01/20 10:46:13;;;;;;;27.32;17.05;;;;;;;-0.97;67.41;99765.39;1668900;84;21386;-72
2022/01/20 10:48:43;;;;;;;25.45;16.15;;;;;;;-0.99;67.41;99757.69;1655173;84;21849;-73
2022/01/20 10:51:19;;;;;;;26.23;16.02;;;;;;;-0.98;67.44;99749.45;1712868;82;21435;-73
2022/01/20 10:54:03;;;;;;;25.40;16.30;;;;;;;-0.96;67.29;99743.33;1690522;83;20996;-72
2022/01/20 10:56:54;;;;;;;33.63;15.90;;;;;;;-0.91;67.25;99740.52;1695633;83;21086;-71
2022/01/20 10:59:23;;;;;;;27.55;17.20;;;;;;;-0.89;67.03;99723.98;1689209;84;21431;-71
2022/01/20 11:02:09;;;;;;;27.80;16.42;;;;;;;-0.88;66.91;99716.59;1672388;85;22438;-72
2022/01/20 11:04:38;;;;;;;26.68;17.10;;;;;;;-0.80;67.01;99708.95;1663273;84;21039;-72
2022/01/20 11:07:08;;;;;;;24.85;15.63;;;;;;;-0.65;66.87;99697.92;1697199;84;21035;-74
2022/01/20 11:09:41;;;;;;;23.15;14.58;;;;;;;-0.42;66.85;99683.91;1697588;84;21027;-73
2022/01/20 11:12:11;;;;;;;24.12;14.75;;;;;;;-0.17;66.16;99687.53;1692450;84;21056;-74
2022/01/20 11:14:47;;;;;;;26.85;15.58;;;;;;;0.01;65.27;99687.97;1694288;84;21873;-73
2022/01/20 11:17:22;;;;;;;26.75;15.48;;;;;;;0.13;64.38;99685.25;1686277;84;21064;-72
2022/01/20 11:19:49;;;;;;;23.15;15.35;;;;;;;0.20;63.93;99688.78;1702907;83;21493;-73
2022/01/20 11:22:16;;;;;;;24.87;15.65;;;;;;;0.26;63.45;99678.08;1683054;82;21031;-72
2022/01/20 11:24:45;;;;;;;23.05;14.90;;;;;;;0.32;63.34;99679.55;1702765;83;20975;-72
2022/01/20 11:27:38;;;;;;;23.65;14.63;;;;;;;0.38;62.88;99670.60;1685856;85;22569;-72
2022/01/20 11:30:26;;;;;;;24.57;11.80;;;;;;;0.44;62.24;99656.86;1696547;84;22157;-72
2022/01/20 11:33:02;;;;;;;22.52;14.58;;;;;;;0.50;61.73;99651.84;1690897;84;21023;-72
2022/01/20 11:35:56;;;;;;;24.82;14.35;;;;;;;0.61;62.08;99644.80;1685488;83;21427;-72
2022/01/20 11:38:37;;;;;;;23.52;14.30;;;;;;;0.79;61.88;99636.08;1702307;84;21023;-73
2022/01/20 11:41:04;;;;;;;24.27;14.15;;;;;;;0.92;61.36;99638.42;1688293;84;21832;-71
2022/01/20 11:43:45;;;;;;;26.62;14.63;;;;;;;1.05;61.11;99651.62;1701974;82;21389;-72
2022/01/20 11:46:18;;;;;;;21.95;14.05;;;;;;;1.12;60.44;99637.38;1694215;84;20959;-72
2022/01/20 11:49:02;;;;;;;;;;;;;;;1.23;60.11;99639.42;1692255;84;20961;-73
2022/01/20 11:51:56;;;;;;;19.98;12.95;;;;;;;1.33;59.73;99634.10;1689989;83;20148;-72
2022/01/20 11:54:32;;;;;;;21.40;13.68;;;;;;;1.45;59.92;99628.27;1676723;84;21844;-72
2022/01/20 11:57:10;;;;;;;21.48;12.90;;;;;;;1.61;58.99;99630.39;1676397;82;21030;-71
2022/01/20 11:59:53;;;;;;;17.82;11.25;;;;;;;1.67;58.24;99632.67;1644405;85;21018;-71
2022/01/20 12:02:33;;;;;;;16.77;10.45;;;;;;;1.65;57.63;99624.58;1644383;87;21055;-73
2022/01/20 12:05:03;;;;;;;18.00;9.90;;;;;;;1.67;56.97;99626.63;1645057;86;21379;-73
2022/01/20 12:07:45;;;;;;;15.80;10.43;;;;;;;1.73;56.56;99615.86;1694276;84;21442;-72
2022/01/20 12:10:15;;;;;;;17.23;10.38;;;;;;;1.81;56.49;99616.75;1704797;84;22173;-73
2022/01/20 12:12:42;;;;;;;17.30;9.43;;;;;;;1.85;56.08;99604.79;1707221;84;21019;-72
2022/01/20 12:15:14;;;;;;;14.98;10.23;;;;;;;1.88;55.61;99607.67;1707794;83;21220;-72
2022/01/20 12:17:55;;;;;;;14.78;9.38;;;;;;;1.91;56.10;99596.61;1706985;84;20968;-72
2022/01/20 12:20:22;;;;;;;13.88;9.10;;;;;;;2.00;55.67;99591.35;1697626;83;21838;-71
2022/01/20 12:22:49;;;;;;;14.85;8.70;;;;;;;2.07;55.03;99600.51;1720224;82;21465;-72
2022/01/20 12:25:29;;;;;;;14.55;8.80;;;;;;;2.08;55.16;99598.73;1706953;82;21475;-71
2022/01/20 12:28:06;;;;;;;14.58;9.08;;;;;;;2.16;55.16;99597.84;1708174;84;20979;-72
2022/01/20 12:30:36;;;;;;;13.05;8.40;;;;;;;2.26;54.85;99597.23;1711087;83;20956;-69
2022/01/20 12:33:07;;;;;;;14.53;8.13;;;;;;;2.34;54.90;99594.65;1708207;84;21813;-71
2022/01/20 12:35:44;;;;;;;13.13;8.33;;;;;;;2.38;54.45;99598.28;1706967;84;21126;-75